Time;durP1;ratioP1;P1;durP2;ratioP2;P2;SDS_P1;SDS_P2;PMS_P1;PMS_P2;Temp;Humidity;BMP_temperature;BMP_pressure;BME280_temperature;BME280_humidity;BME280_pressure;Samples;Min_cycle;Max_cycle;Signal;HPM_P1;HPM_P2
2021/12/14 00:00:48;;;;;;;0.00;0.00;;;5.30;92.80;;;;;;3932731;30;20054;-63
2021/12/14 00:03:14;;;;;;;0.00;0.00;;;5.30;92.70;;;;;;3932985;30;20060;-63
2021/12/14 00:05:37;;;;;;;0.00;0.00;;;5.20;92.80;;;;;;3932795;30;20060;-62
2021/12/14 00:08:04;;;;;;;0.00;0.00;;;5.10;93.00;;;;;;3932727;30;20060;-63
2021/12/14 00:13:11;;;;;;;0.00;0.00;;;5.00;93.10;;;;;;3932808;30;20798;-62
2021/12/14 00:15:33;;;;;;;0.00;0.00;;;5.10;93.10;;;;;;3920456;30;20563;-63
2021/12/14 00:18:01;;;;;;;0.00;0.00;;;5.10;93.00;;;;;;3931109;30;20143;-60
2021/12/14 00:20:42;;;;;;;0.00;0.00;;;5.20;93.00;;;;;;3932637;30;20048;-63
2021/12/14 00:25:50;;;;;;;0.00;0.00;;;5.20;92.80;;;;;;3932584;30;20135;-63
2021/12/14 00:28:14;;;;;;;0.00;0.00;;;5.20;92.90;;;;;;3932207;30;20044;-61
2021/12/14 00:30:39;;;;;;;0.00;0.00;;;5.30;92.80;;;;;;3919923;30;20060;-61
2021/12/14 00:33:06;;;;;;;0.00;0.00;;;5.40;92.60;;;;;;3920305;30;20103;-62
2021/12/14 00:35:29;;;;;;;0.00;0.00;;;5.40;92.70;;;;;;3932313;30;20227;-63
2021/12/14 00:37:53;;;;;;;0.00;0.00;;;5.30;92.80;;;;;;3919731;30;20515;-62
2021/12/14 00:40:24;;;;;;;0.00;0.00;;;5.20;93.00;;;;;;3920054;30;20072;-62
2021/12/14 00:42:47;;;;;;;0.00;0.00;;;5.10;93.10;;;;;;3932351;30;20102;-63
2021/12/14 00:45:10;;;;;;;0.00;0.00;;;5.10;93.10;;;;;;3920117;30;20059;-63
2021/12/14 00:47:33;;;;;;;0.00;0.00;;;5.20;93.00;;;;;;3920122;30;20057;-63
2021/12/14 00:49:55;;;;;;;0.00;0.00;;;5.10;93.10;;;;;;3931870;30;20106;-63
2021/12/14 00:52:18;;;;;;;0.00;0.00;;;5.20;93.30;;;;;;3931953;30;20048;-64
2021/12/14 00:54:41;;;;;;;0.00;0.00;;;5.20;93.10;;;;;;3932121;30;20044;-61
2021/12/14 00:57:05;;;;;;;0.00;0.00;;;5.20;93.10;;;;;;3919917;30;20096;-63
2021/12/14 00:59:31;;;;;;;0.00;0.00;;;5.10;93.30;;;;;;3931985;30;20048;-63
2021/12/14 01:02:11;;;;;;;0.00;0.00;;;5.20;93.00;;;;;;3919209;30;20059;-62
2021/12/14 01:04:48;;;;;;;0.00;0.00;;;5.30;93.10;;;;;;3932072;30;20071;-64
2021/12/14 01:07:13;;;;;;;0.00;0.00;;;5.30;92.80;;;;;;3919791;30;20516;-62
2021/12/14 01:09:41;;;;;;;0.00;0.00;;;5.30;92.70;;;;;;3932131;30;20056;-63
2021/12/14 01:12:10;;;;;;;0.00;0.00;;;5.30;92.70;;;;;;3919060;30;20105;-61
2021/12/14 01:14:42;;;;;;;0.00;0.00;;;5.20;92.80;;;;;;3931846;30;20135;-63
2021/12/14 01:17:24;;;;;;;0.00;0.00;;;5.10;93.10;;;;;;3919771;30;20053;-63
2021/12/14 01:19:54;;;;;;;0.00;0.00;;;5.00;93.30;;;;;;3919498;30;20061;-64
2021/12/14 01:23:13;;;;;;;0.00;0.00;;;5.10;93.10;;;;;;3919408;30;20048;-64
2021/12/14 01:25:18;;;;;;;0.00;0.00;;;5.20;93.00;;;;;;3919623;30;20048;-63
2021/12/14 01:27:52;;;;;;;0.00;0.00;;;5.20;92.80;;;;;;3919703;30;20133;-64
2021/12/14 01:30:35;;;;;;;0.00;0.00;;;5.20;92.70;;;;;;3931386;30;20141;-64
2021/12/14 01:33:05;;;;;;;0.00;0.00;;;5.20;92.80;;;;;;3919612;30;20442;-63
2021/12/14 01:35:33;;;;;;;0.00;0.00;;;5.20;92.90;;;;;;3931606;30;20080;-63
2021/12/14 01:38:02;;;;;;;0.00;0.00;;;5.10;92.90;;;;;;3918869;30;20052;-62
2021/12/14 01:40:54;;;;;;;0.00;0.00;;;4.80;93.30;;;;;;3919448;30;20080;-58
2021/12/14 01:43:34;;;;;;;0.00;0.00;;;4.80;93.30;;;;;;3923934;30;20509;-64
2021/12/14 01:46:19;;;;;;;0.00;0.00;;;4.80;93.30;;;;;;3918913;30;20071;-62
2021/12/14 01:48:44;;;;;;;0.00;0.00;;;4.90;93.20;;;;;;3919401;30;20052;-63
2021/12/14 01:51:30;;;;;;;0.00;0.00;;;4.90;93.20;;;;;;3909726;30;20048;-63
2021/12/14 01:53:56;;;;;;;0.00;0.00;;;4.90;93.30;;;;;;3931042;30;20148;-62
2021/12/14 01:56:23;;;;;;;0.00;0.00;;;4.80;93.40;;;;;;3919191;30;20497;-63
2021/12/14 01:58:53;;;;;;;0.00;0.00;;;4.80;93.60;;;;;;3931271;30;20545;-63
2021/12/14 02:01:25;;;;;;;0.00;0.00;;;4.60;93.70;;;;;;3918884;30;20155;-62
2021/12/14 02:03:56;;;;;;;0.00;0.00;;;4.50;93.90;;;;;;3930906;30;20085;-64
2021/12/14 02:06:31;;;;;;;0.00;0.00;;;4.50;93.80;;;;;;3931191;30;20108;-63
2021/12/14 02:09:10;;;;;;;0.00;0.00;;;4.50;93.90;;;;;;3931263;30;20106;-64
2021/12/14 02:11:36;;;;;;;0.00;0.00;;;4.50;93.80;;;;;;3918607;30;20049;-62
2021/12/14 02:14:00;;;;;;;0.00;0.00;;;4.70;93.70;;;;;;3930825;30;20048;-64
2021/12/14 02:16:23;;;;;;;0.00;0.00;;;4.60;93.60;;;;;;3918824;30;20124;-59
2021/12/14 02:18:56;;;;;;;0.00;0.00;;;4.50;93.60;;;;;;3931321;30;20124;-63
2021/12/14 02:21:19;;;;;;;0.00;0.00;;;4.40;93.90;;;;;;3930936;30;20561;-63
2021/12/14 02:23:46;;;;;;;0.00;0.00;;;4.50;93.80;;;;;;3919024;30;20055;-62
2021/12/14 02:26:13;;;;;;;0.00;0.00;;;4.50;93.80;;;;;;3918452;30;20135;-62
2021/12/14 02:28:38;;;;;;;0.00;0.00;;;4.40;93.80;;;;;;3930995;30;20056;-62
2021/12/14 02:31:03;;;;;;;0.00;0.00;;;4.50;93.80;;;;;;3918325;30;20059;-62
2021/12/14 02:33:32;;;;;;;0.00;0.00;;;4.50;93.70;;;;;;3918741;30;20140;-61
2021/12/14 02:35:56;;;;;;;0.00;0.00;;;4.60;93.60;;;;;;3930288;30;20092;-61
2021/12/14 02:38:19;;;;;;;0.00;0.00;;;4.60;93.60;;;;;;3931004;30;20048;-62
2021/12/14 02:40:55;;;;;;;0.00;0.00;;;4.70;93.40;;;;;;3931787;30;20052;-62
2021/12/14 02:43:32;;;;;;;0.00;0.00;;;4.60;93.60;;;;;;3933903;30;20059;-61
2021/12/14 02:46:11;;;;;;;0.00;0.00;;;4.30;93.90;;;;;;3933721;30;20063;-62
2021/12/14 02:48:34;;;;;;;0.00;0.00;;;4.30;94.20;;;;;;3934173;30;20056;-63
2021/12/14 02:51:04;;;;;;;0.00;0.00;;;4.20;94.20;;;;;;3921390;30;20052;-60
2021/12/14 02:53:27;;;;;;;0.00;0.00;;;4.30;94.00;;;;;;3933801;30;20056;-56
2021/12/14 02:55:49;;;;;;;0.00;0.00;;;4.40;94.00;;;;;;3921132;30;20060;-61
2021/12/14 02:58:12;;;;;;;0.00;0.00;;;4.20;94.20;;;;;;3921674;30;20519;-64
2021/12/14 03:00:47;;;;;;;0.00;0.00;;;4.30;94.20;;;;;;3921691;30;20052;-62
2021/12/14 03:03:11;;;;;;;0.00;0.00;;;4.30;94.20;;;;;;3933653;30;20090;-60
2021/12/14 03:05:37;;;;;;;0.00;0.00;;;4.30;94.10;;;;;;3921458;30;20126;-60
2021/12/14 03:08:15;;;;;;;0.00;0.00;;;4.30;94.30;;;;;;3933306;30;20474;-60
2021/12/14 03:10:57;;;;;;;0.00;0.00;;;4.10;94.60;;;;;;3933479;30;20059;-61
2021/12/14 03:13:19;;;;;;;;;;;4.10;95.00;;;;;;3934088;30;20076;-61
2021/12/14 03:15:51;;;;;;;0.00;0.00;;;4.00;94.80;;;;;;3933711;30;20667;-60
2021/12/14 03:18:16;;;;;;;0.00;0.00;;;4.10;94.80;;;;;;3933234;30;20056;-61
2021/12/14 03:20:53;;;;;;;0.00;0.00;;;4.20;94.60;;;;;;3932531;30;20414;-59
2021/12/14 03:23:36;;;;;;;0.00;0.00;;;4.30;94.50;;;;;;3921282;30;20056;-61
2021/12/14 03:26:01;;;;;;;0.00;0.00;;;4.30;94.40;;;;;;3933245;30;20082;-61
2021/12/14 03:28:27;;;;;;;0.00;0.00;;;4.40;94.20;;;;;;3933512;30;20075;-61
2021/12/14 03:31:08;;;;;;;0.00;0.00;;;4.30;94.50;;;;;;3933067;30;20052;-61
2021/12/14 03:33:37;;;;;;;0.00;0.00;;;4.30;94.50;;;;;;3933370;30;20081;-62
2021/12/14 03:36:13;;;;;;;0.00;0.00;;;4.40;94.30;;;;;;3920560;30;20053;-61
2021/12/14 03:38:51;;;;;;;0.00;0.00;;;4.40;94.30;;;;;;3921348;30;20503;-61
2021/12/14 03:41:18;;;;;;;0.00;0.00;;;4.40;94.30;;;;;;3920821;30;20148;-61
2021/12/14 03:44:02;;;;;;;0.00;0.00;;;4.30;94.30;;;;;;3933169;30;20143;-61
2021/12/14 03:46:33;;;;;;;0.00;0.00;;;4.40;94.20;;;;;;3932770;30;20063;-60
2021/12/14 03:48:56;;;;;;;0.00;0.00;;;4.40;94.10;;;;;;3920213;30;20479;-63
2021/12/14 03:51:22;;;;;;;0.00;0.00;;;4.50;94.00;;;;;;3920381;30;20087;-62
2021/12/14 03:53:45;;;;;;;0.00;0.00;;;4.40;94.10;;;;;;3932987;30;20048;-62
2021/12/14 03:56:08;;;;;;;0.00;0.00;;;4.50;94.00;;;;;;3920497;30;20074;-62
2021/12/14 03:58:38;;;;;;;0.00;0.00;;;4.50;94.10;;;;;;3932888;30;20072;-62
2021/12/14 04:01:13;;;;;;;0.00;0.00;;;4.50;94.10;;;;;;3920684;30;20067;-61
2021/12/14 04:03:45;;;;;;;0.00;0.00;;;4.50;94.00;;;;;;3920538;30;20061;-62
2021/12/14 04:06:16;;;;;;;0.00;0.00;;;4.50;93.90;;;;;;3932544;30;20085;-61
2021/12/14 04:08:39;;;;;;;0.00;0.00;;;4.50;93.80;;;;;;3932751;30;20060;-58
2021/12/14 04:11:05;;;;;;;0.00;0.00;;;4.40;93.90;;;;;;3920177;30;20121;-61
2021/12/14 04:13:36;;;;;;;0.00;0.00;;;4.40;94.00;;;;;;3920634;30;20061;-63
2021/12/14 04:16:02;;;;;;;0.00;0.00;;;4.40;93.90;;;;;;3920197;30;20056;-63
2021/12/14 04:18:28;;;;;;;0.00;0.00;;;4.40;93.90;;;;;;3932897;30;20059;-62
2021/12/14 04:20:52;;;;;;;0.00;0.00;;;4.50;93.90;;;;;;3920234;30;20063;-62
2021/12/14 04:23:24;;;;;;;0.00;0.00;;;4.50;93.90;;;;;;3932605;30;20124;-62
2021/12/14 04:25:48;;;;;;;0.00;0.00;;;4.50;93.80;;;;;;3908339;30;20057;-58
2021/12/14 04:28:15;;;;;;;0.00;0.00;;;4.50;93.80;;;;;;3932744;30;20087;-63
2021/12/14 04:30:40;;;;;;;0.00;0.00;;;4.50;93.80;;;;;;3932355;30;20455;-60
2021/12/14 04:33:13;;;;;;;0.00;0.00;;;4.50;93.60;;;;;;3920164;30;20155;-63
2021/12/14 04:35:38;;;;;;;0.00;0.00;;;4.50;93.90;;;;;;3920092;30;20056;-63
2021/12/14 04:38:09;;;;;;;0.00;0.00;;;4.30;93.80;;;;;;3932139;30;20102;-61
2021/12/14 04:53:53;;;;;;;0.00;0.00;;;4.30;94.00;;;;;;3919989;30;20500;-62
2021/12/14 04:56:32;;;;;;;0.00;0.00;;;4.10;94.40;;;;;;3931856;30;20041;-61
2021/12/14 04:59:04;;;;;;;0.00;0.00;;;4.00;94.60;;;;;;3932248;30;20095;-62
2021/12/14 05:01:27;;;;;;;0.00;0.00;;;4.00;94.60;;;;;;3932123;30;20052;-60
2021/12/14 05:03:57;;;;;;;0.00;0.00;;;3.90;94.90;;;;;;3931170;30;20138;-63
2021/12/14 05:06:23;;;;;;;0.00;0.00;;;3.90;95.00;;;;;;3919958;30;20095;-62
2021/12/14 05:11:21;;;;;;;0.00;0.00;;;4.00;95.20;;;;;;3919423;30;20053;-63
2021/12/14 05:13:53;;;;;;;0.00;0.00;;;4.10;94.90;;;;;;3932138;30;20617;-61
2021/12/14 05:16:27;;;;;;;0.00;0.00;;;4.20;94.90;;;;;;3932319;30;20614;-63
2021/12/14 05:19:02;;;;;;;0.00;0.00;;;4.20;94.70;;;;;;3932344;30;20139;-62
2021/12/14 05:21:50;;;;;;;0.00;0.00;;;4.10;94.60;;;;;;3919740;30;20060;-57
2021/12/14 05:24:21;;;;;;;0.00;0.00;;;3.90;95.00;;;;;;3931746;30;20060;-63
2021/12/14 05:26:58;;;;;;;0.00;0.00;;;4.00;95.20;;;;;;3932281;30;20068;-62
2021/12/14 05:29:26;;;;;;;0.00;0.00;;;3.90;95.20;;;;;;3931999;30;20048;-58
2021/12/14 05:31:50;;;;;;;0.00;0.00;;;3.90;95.40;;;;;;3919030;30;20064;-64
2021/12/14 05:34:16;;;;;;;0.00;0.00;;;3.90;95.60;;;;;;3931862;30;20105;-63
2021/12/14 05:36:44;;;;;;;0.00;0.00;;;4.00;95.40;;;;;;3932024;30;20048;-63
2021/12/14 05:44:49;;;;;;;0.00;0.00;;;3.90;95.60;;;;;;3931878;30;20084;-63
2021/12/14 05:47:17;;;;;;;0.00;0.00;;;3.80;95.90;;;;;;3919660;30;20410;-62
2021/12/14 05:50:00;;;;;;;0.00;0.00;;;3.90;96.00;;;;;;3931388;30;20052;-63
2021/12/14 05:52:27;;;;;;;0.00;0.00;;;4.10;95.80;;;;;;3919351;30;20052;-61
2021/12/14 05:54:57;;;;;;;0.00;0.00;;;4.20;95.60;;;;;;3919406;30;20048;-62
2021/12/14 05:57:22;;;;;;;0.00;0.00;;;4.30;95.50;;;;;;3931680;30;20048;-63
2021/12/14 05:59:46;;;;;;;0.00;0.00;;;4.30;95.40;;;;;;3919480;30;20052;-64
2021/12/14 06:02:09;;;;;;;0.00;0.00;;;4.30;95.30;;;;;;3918834;30;20124;-63
2021/12/14 06:04:44;;;;;;;0.00;0.00;;;4.30;95.40;;;;;;3919381;30;20091;-63
2021/12/14 06:07:09;;;;;;;0.00;0.00;;;4.30;95.30;;;;;;3919173;30;20052;-64
2021/12/14 06:09:41;;;;;;;0.00;0.00;;;4.20;95.50;;;;;;3931501;30;20051;-63
2021/12/14 06:12:16;;;;;;;0.00;0.00;;;4.20;95.70;;;;;;3930762;30;20151;-62
2021/12/14 06:14:51;;;;;;;0.00;0.00;;;4.30;95.50;;;;;;3919046;30;20071;-63
2021/12/14 06:17:15;;;;;;;0.00;0.00;;;4.40;95.30;;;;;;3931284;30;20052;-63
2021/12/14 06:19:41;;;;;;;0.00;0.00;;;4.40;95.20;;;;;;3919036;30;20062;-62
2021/12/14 06:22:18;;;;;;;0.00;0.00;;;4.40;95.30;;;;;;3930810;30;20451;-63
2021/12/14 06:24:45;;;;;;;0.00;0.00;;;4.20;95.50;;;;;;3931236;30;20079;-63
2021/12/14 06:27:14;;;;;;;0.00;0.00;;;4.20;95.60;;;;;;3919064;30;20117;-63
2021/12/14 06:29:41;;;;;;;0.00;0.00;;;4.30;95.30;;;;;;3919062;30;20064;-63
2021/12/14 06:32:29;;;;;;;0.00;0.00;;;4.30;95.30;;;;;;3930688;30;20140;-62
2021/12/14 06:34:59;;;;;;;0.00;0.00;;;4.40;95.30;;;;;;3918899;30;20076;-54
2021/12/14 06:40:17;;;;;;;0.00;0.00;;;4.40;95.10;;;;;;3930873;30;20106;-63
2021/12/14 06:42:49;;;;;;;0.00;0.00;;;4.20;95.50;;;;;;3919110;30;20064;-62
2021/12/14 06:45:20;;;;;;;0.00;0.00;;;4.20;95.70;;;;;;3931157;30;20056;-63
2021/12/14 06:47:44;;;;;;;0.00;0.00;;;4.20;95.80;;;;;;3931210;30;20106;-61
2021/12/14 06:50:12;;;;;;;0.00;0.00;;;4.30;95.70;;;;;;3918709;30;20145;-64
2021/12/14 06:52:34;;;;;;;0.00;0.00;;;4.40;95.50;;;;;;3931185;30;20536;-63
2021/12/14 06:55:22;;;;;;;0.00;0.00;;;4.50;95.30;;;;;;3918925;30;20483;-64
2021/12/14 06:58:21;;;;;;;0.00;0.00;;;4.50;95.20;;;;;;3916750;30;20056;-62
2021/12/14 07:00:58;;;;;;;0.00;0.00;;;4.50;95.20;;;;;;3930886;30;20056;-62
2021/12/14 07:03:21;;;;;;;0.00;0.00;;;4.50;95.20;;;;;;3906859;30;20087;-62
2021/12/14 07:05:55;;;;;;;0.00;0.00;;;4.60;95.30;;;;;;3920025;30;20052;-63
2021/12/14 07:08:26;;;;;;;0.00;0.00;;;4.50;95.10;;;;;;3918694;30;20048;-63
2021/12/14 07:10:49;;;;;;;0.00;0.00;;;4.50;95.20;;;;;;3930930;30;20060;-64
2021/12/14 07:13:18;;;;;;;0.00;0.00;;;4.40;95.20;;;;;;3931014;30;20052;-64
2021/12/14 07:15:40;;;;;;;0.00;0.00;;;4.50;95.10;;;;;;3931116;30;20064;-62
2021/12/14 07:18:05;;;;;;;0.00;0.00;;;4.50;95.00;;;;;;3930498;30;20052;-63
2021/12/14 07:20:33;;;;;;;0.00;0.00;;;4.50;95.00;;;;;;3931038;30;20072;-59
2021/12/14 07:23:03;;;;;;;0.00;0.00;;;4.40;95.10;;;;;;3930963;30;20080;-64
2021/12/14 07:25:37;;;;;;;0.00;0.00;;;4.10;95.00;;;;;;3930767;30;20052;-60
2021/12/14 07:28:11;;;;;;;0.00;0.00;;;3.90;95.40;;;;;;3933234;30;20261;-62
2021/12/14 07:30:51;;;;;;;0.00;0.00;;;3.80;95.60;;;;;;3933360;30;20144;-62
2021/12/14 07:33:17;;;;;;;0.00;0.00;;;3.70;96.00;;;;;;3933467;30;20110;-62
2021/12/14 07:36:07;;;;;;;0.00;0.00;;;3.70;95.90;;;;;;3933434;30;20070;-62
2021/12/14 07:38:48;;;;;;;0.00;0.00;;;3.70;96.00;;;;;;3933231;30;20056;-62
2021/12/14 07:41:30;;;;;;;0.00;0.00;;;3.70;95.80;;;;;;3933161;30;20048;-63
2021/12/14 07:44:19;;;;;;;0.00;0.00;;;3.80;95.80;;;;;;3933256;30;20087;-62
2021/12/14 07:46:52;;;;;;;0.00;0.00;;;3.80;95.60;;;;;;3921204;30;20048;-62
2021/12/14 07:49:40;;;;;;;0.00;0.00;;;3.90;95.50;;;;;;3924853;30;20129;-62
2021/12/14 07:52:08;;;;;;;0.00;0.00;;;4.00;95.40;;;;;;3932887;30;20088;-65
2021/12/14 07:54:43;;;;;;;0.00;0.00;;;4.10;95.20;;;;;;3933190;30;20056;-65
2021/12/14 07:57:10;;;;;;;0.00;0.00;;;4.20;95.00;;;;;;3933283;30;20052;-65
2021/12/14 07:59:36;;;;;;;0.00;0.00;;;4.20;94.90;;;;;;3933259;30;20094;-65
2021/12/14 08:02:24;;;;;;;0.00;0.00;;;4.30;94.90;;;;;;3932519;30;20056;-65
2021/12/14 08:04:57;;;;;;;0.00;0.00;;;4.30;94.80;;;;;;3933227;30;20554;-64
2021/12/14 08:07:25;;;;;;;0.00;0.00;;;4.30;94.70;;;;;;3933125;30;20072;-64
2021/12/14 08:09:50;;;;;;;0.00;0.00;;;4.30;94.80;;;;;;3930128;30;20052;-65
2021/12/14 08:12:27;;;;;;;0.00;0.00;;;4.30;94.70;;;;;;3916973;30;20052;-64
2021/12/14 08:15:00;;;;;;;0.00;0.00;;;4.20;95.00;;;;;;3932763;30;20052;-64
2021/12/14 08:17:24;;;;;;;0.00;0.00;;;4.20;95.30;;;;;;3931465;30;20075;-64
2021/12/14 08:19:52;;;;;;;0.00;0.00;;;4.20;95.20;;;;;;3932655;30;20062;-65
2021/12/14 08:22:32;;;;;;;0.00;0.00;;;4.40;95.00;;;;;;3932934;30;20051;-65
2021/12/14 08:24:56;;;;;;;0.00;0.00;;;4.50;94.90;;;;;;3932850;30;20114;-66
2021/12/14 08:27:25;;;;;;;0.00;0.00;;;4.50;94.70;;;;;;3932757;30;20125;-65
2021/12/14 08:29:57;;;;;;;0.00;0.00;;;4.60;94.70;;;;;;3932424;30;20500;-65
2021/12/14 08:32:24;;;;;;;0.00;0.00;;;4.50;94.80;;;;;;3932580;30;20415;-65
2021/12/14 08:34:48;;;;;;;0.00;0.00;;;4.60;94.70;;;;;;3932638;30;20052;-65
2021/12/14 08:37:31;;;;;;;0.00;0.00;;;4.70;94.50;;;;;;3932431;30;20052;-65
2021/12/14 08:40:01;;;;;;;0.00;0.00;;;4.80;94.40;;;;;;3920025;30;20052;-65
2021/12/14 08:42:48;;;;;;;0.00;0.00;;;4.70;94.40;;;;;;3920325;30;20055;-65
2021/12/14 08:45:25;;;;;;;0.00;0.00;;;4.80;94.50;;;;;;3932410;30;20056;-65
2021/12/14 08:47:47;;;;;;;0.00;0.00;;;4.80;94.40;;;;;;3932156;30;20074;-66
2021/12/14 08:50:13;;;;;;;0.00;0.00;;;4.80;94.50;;;;;;3932717;30;20511;-65
2021/12/14 08:52:36;;;;;;;0.00;0.00;;;4.80;94.50;;;;;;3920113;30;20056;-65
2021/12/14 08:54:59;;;;;;;0.00;0.00;;;4.90;94.40;;;;;;3932500;30;20059;-66
2021/12/14 08:57:27;;;;;;;0.00;0.00;;;4.90;94.60;;;;;;3920560;30;20056;-65
2021/12/14 08:59:56;;;;;;;0.00;0.00;;;5.00;94.30;;;;;;3919748;30;20083;-66
2021/12/14 09:02:20;;;;;;;0.00;0.00;;;5.00;94.20;;;;;;3932318;30;20067;-65
2021/12/14 09:05:06;;;;;;;0.00;0.00;;;5.00;94.30;;;;;;3920058;30;20128;-65
2021/12/14 09:07:31;;;;;;;0.00;0.00;;;4.90;94.50;;;;;;3920239;30;20139;-65
2021/12/14 09:09:56;;;;;;;0.00;0.00;;;5.00;94.40;;;;;;3919676;30;20478;-65
2021/12/14 09:12:30;;;;;;;0.00;0.00;;;5.00;94.20;;;;;;3919584;30;20045;-65
2021/12/14 09:14:57;;;;;;;0.00;0.00;;;4.90;94.40;;;;;;3931855;30;20063;-65
2021/12/14 09:17:24;;;;;;;0.00;0.00;;;4.90;94.50;;;;;;3932157;30;20052;-66
2021/12/14 09:19:51;;;;;;;0.00;0.00;;;4.90;94.60;;;;;;3919456;30;20581;-65
2021/12/14 09:22:24;;;;;;;0.00;0.00;;;4.90;94.60;;;;;;3931570;30;20040;-65
2021/12/14 09:24:47;;;;;;;0.00;0.00;;;4.90;94.70;;;;;;3931834;30;20048;-64
2021/12/14 09:27:14;;;;;;;0.00;0.00;;;4.80;94.70;;;;;;3931963;30;20052;-64
2021/12/14 09:29:39;;;;;;;0.00;0.00;;;4.80;94.70;;;;;;3931772;30;20135;-64
2021/12/14 09:32:05;;;;;;;0.00;0.00;;;4.70;94.60;;;;;;3930979;30;20056;-64
2021/12/14 09:34:31;;;;;;;0.00;0.00;;;4.70;94.80;;;;;;3931652;30;20052;-64
2021/12/14 09:36:53;;;;;;;0.00;0.00;;;4.60;94.90;;;;;;3931725;30;20052;-64
2021/12/14 09:39:24;;;;;;;0.00;0.00;;;4.60;94.80;;;;;;3931842;30;20052;-64
2021/12/14 09:41:53;;;;;;;0.00;0.00;;;4.70;95.00;;;;;;3930971;30;20056;-65
2021/12/14 09:44:20;;;;;;;0.00;0.00;;;4.90;94.80;;;;;;3931576;30;20068;-65
2021/12/14 09:46:43;;;;;;;0.00;0.00;;;5.00;94.60;;;;;;3931718;30;20107;-64
2021/12/14 09:49:09;;;;;;;0.00;0.00;;;5.00;94.60;;;;;;3931537;30;20067;-64
2021/12/14 09:51:49;;;;;;;0.00;0.00;;;4.90;94.70;;;;;;3931152;30;20060;-64
2021/12/14 09:54:15;;;;;;;0.00;0.00;;;4.70;95.00;;;;;;3931030;30;20528;-65
2021/12/14 09:56:42;;;;;;;0.00;0.00;;;4.70;95.10;;;;;;3930933;30;20170;-64
2021/12/14 09:59:06;;;;;;;0.00;0.00;;;4.80;94.90;;;;;;3931753;30;20048;-64
2021/12/14 10:01:34;;;;;;;0.00;0.00;;;5.00;94.70;;;;;;3931144;30;20634;-65
2021/12/14 10:04:04;;;;;;;0.00;0.00;;;5.10;94.60;;;;;;3931202;30;20470;-64
2021/12/14 10:06:30;;;;;;;0.00;0.00;;;5.20;94.40;;;;;;3931589;30;20503;-65
2021/12/14 10:08:59;;;;;;;0.00;0.00;;;5.30;94.30;;;;;;3931078;30;20416;-63
2021/12/14 10:12:02;;;;;;;0.00;0.00;;;5.30;94.30;;;;;;3938677;30;20070;-65
2021/12/14 10:14:30;;;;;;;0.00;0.00;;;5.30;94.20;;;;;;3940745;30;20052;-65
2021/12/14 10:16:53;;;;;;;0.00;0.00;;;5.30;94.10;;;;;;3946221;30;20131;-64
2021/12/14 10:19:21;;;;;;;0.00;0.00;;;5.20;94.10;;;;;;3931910;30;20066;-65
2021/12/14 10:21:51;;;;;;;0.00;0.00;;;5.30;94.10;;;;;;3943083;30;20079;-64
2021/12/14 10:24:14;;;;;;;0.00;0.00;;;5.30;94.00;;;;;;3930967;30;20062;-65
2021/12/14 10:26:40;;;;;;;0.00;0.00;;;5.30;94.00;;;;;;3936709;30;20083;-65
2021/12/14 10:29:04;;;;;;;0.00;0.00;;;5.30;94.00;;;;;;3945914;30;20513;-64
2021/12/14 10:31:35;;;;;;;0.00;0.00;;;5.20;94.00;;;;;;3945610;30;20063;-64
2021/12/14 10:34:02;;;;;;;0.00;0.00;;;5.20;94.00;;;;;;3945333;30;20511;-64
2021/12/14 10:36:32;;;;;;;0.00;0.00;;;5.30;93.90;;;;;;3944979;30;20047;-65
2021/12/14 10:44:37;;;;;;;0.00;0.00;;;5.10;94.10;;;;;;3958428;30;20460;-65
2021/12/14 10:46:59;;;;;;;0.00;0.00;;;5.00;94.20;;;;;;3935576;30;20462;-65
2021/12/14 10:49:25;;;;;;;0.00;0.00;;;5.10;94.10;;;;;;3945018;30;20056;-65
2021/12/14 10:51:50;;;;;;;0.00;0.00;;;5.20;94.10;;;;;;3930234;30;20052;-66
2021/12/14 10:54:15;;;;;;;0.00;0.00;;;5.20;94.10;;;;;;3936008;30;20162;-65
2021/12/14 10:56:45;;;;;;;0.00;0.00;;;5.30;93.90;;;;;;3945656;30;20079;-66
2021/12/14 10:59:11;;;;;;;0.00;0.00;;;5.40;93.80;;;;;;3945719;30;20102;-66
2021/12/14 11:01:35;;;;;;;0.00;0.00;;;5.30;93.80;;;;;;3933606;30;20188;-66
2021/12/14 11:04:12;;;;;;;0.00;0.00;;;5.30;94.00;;;;;;3933803;30;20051;-66
2021/12/14 11:06:38;;;;;;;0.00;0.00;;;5.40;93.90;;;;;;3933702;30;20059;-66
2021/12/14 11:11:44;;;;;;;0.00;0.00;;;5.40;93.70;;;;;;3933579;30;20106;-66
2021/12/14 11:14:11;;;;;;;0.00;0.00;;;5.40;93.60;;;;;;3945719;30;20445;-66
2021/12/14 11:19:52;;;;;;;0.00;0.00;;;5.20;94.00;;;;;;3923349;30;20076;-66
2021/12/14 11:22:22;;;;;;;0.00;0.00;;;5.30;93.70;;;;;;3947635;30;20597;-66
2021/12/14 11:24:48;;;;;;;0.00;0.00;;;5.30;93.50;;;;;;3936137;30;20113;-66
2021/12/14 11:27:22;;;;;;;0.00;0.00;;;5.20;93.50;;;;;;3948212;30;20135;-66
2021/12/14 11:29:45;;;;;;;0.00;0.00;;;5.10;93.70;;;;;;3948454;30;20051;-66
2021/12/14 11:32:14;;;;;;;0.00;0.00;;;5.10;93.80;;;;;;3947605;30;20442;-64
2021/12/14 11:34:39;;;;;;;0.00;0.00;;;5.20;93.70;;;;;;3948271;30;20051;-65
2021/12/14 11:37:08;;;;;;;0.00;0.00;;;5.30;93.80;;;;;;3935641;30;20136;-66
2021/12/14 11:39:38;;;;;;;0.00;0.00;;;5.40;93.40;;;;;;3935898;30;20059;-65
2021/12/14 11:42:05;;;;;;;0.00;0.00;;;5.30;93.50;;;;;;3959795;29;20101;-65
2021/12/14 11:44:32;;;;;;;0.00;0.00;;;5.40;93.40;;;;;;3948405;30;20048;-64
2021/12/14 11:47:04;;;;;;;0.00;0.00;;;5.40;93.40;;;;;;3947975;30;20098;-64
2021/12/14 11:49:52;;;;;;;0.00;0.00;;;5.50;93.10;;;;;;3935976;30;20055;-64
2021/12/14 11:52:35;;;;;;;0.00;0.00;;;5.60;92.90;;;;;;3947299;30;20108;-63
2021/12/14 11:54:58;;;;;;;0.00;0.00;;;6.20;92.60;;;;;;3935486;30;20052;-64
2021/12/14 11:57:30;;;;;;;0.00;0.00;;;6.40;92.10;;;;;;3932895;30;20516;-66
2021/12/14 12:00:11;;;;;;;0.00;0.00;;;6.70;91.70;;;;;;3932902;30;20083;-62
2021/12/14 12:02:34;;;;;;;0.00;0.00;;;7.00;91.30;;;;;;3933306;30;20122;-62
2021/12/14 12:04:57;;;;;;;0.00;0.00;;;6.80;90.70;;;;;;3933098;30;20074;-62
2021/12/14 12:10:02;;;;;;;0.00;0.00;;;6.20;91.30;;;;;;3932745;30;20125;-63
2021/12/14 12:12:35;;;;;;;0.00;0.00;;;6.30;91.50;;;;;;3932650;30;20106;-64
2021/12/14 12:15:09;;;;;;;0.00;0.00;;;6.40;91.40;;;;;;3933030;30;20139;-63
2021/12/14 12:17:37;;;;;;;0.00;0.00;;;6.30;91.30;;;;;;3921558;30;20591;-65
2021/12/14 12:20:21;;;;;;;0.00;0.00;;;6.40;91.20;;;;;;3932370;30;20052;-65
2021/12/14 12:22:46;;;;;;;0.00;0.00;;;6.50;91.30;;;;;;3932977;30;20116;-65
2021/12/14 12:25:21;;;;;;;0.00;0.00;;;6.40;91.30;;;;;;3932895;30;20063;-65
2021/12/14 12:27:56;;;;;;;0.00;0.00;;;6.40;91.20;;;;;;3932247;30;20497;-65
2021/12/14 12:30:48;;;;;;;0.00;0.00;;;6.40;91.10;;;;;;3944381;30;20101;-65
2021/12/14 12:33:28;;;;;;;0.00;0.00;;;6.10;91.60;;;;;;3932707;30;20168;-65
2021/12/14 12:35:56;;;;;;;0.00;0.00;;;5.70;92.40;;;;;;3907659;30;20084;-65
2021/12/14 12:38:33;;;;;;;0.00;0.00;;;5.60;92.90;;;;;;3932679;30;20048;-65
2021/12/14 12:41:45;;;;;;;0.00;0.00;;;5.50;93.20;;;;;;3932316;30;20591;-65
2021/12/14 12:44:14;;;;;;;0.00;0.00;;;5.50;93.30;;;;;;3923019;30;20152;-64
2021/12/14 12:46:51;;;;;;;0.00;0.00;;;5.50;93.30;;;;;;3932643;30;20052;-66
2021/12/14 12:49:18;;;;;;;0.00;0.00;;;5.40;93.40;;;;;;3920476;30;20081;-66
2021/12/14 12:52:06;;;;;;;0.00;0.00;;;5.20;93.50;;;;;;3932023;30;20050;-64
2021/12/14 12:54:41;;;;;;;0.00;0.00;;;5.30;93.80;;;;;;3928340;30;20051;-64
2021/12/14 12:57:21;;;;;;;0.00;0.00;;;5.30;93.60;;;;;;3946973;30;20048;-64
2021/12/14 12:59:56;;;;;;;0.00;0.00;;;5.20;93.80;;;;;;3959453;30;20059;-64
2021/12/14 13:02:49;;;;;;;0.00;0.00;;;5.20;94.00;;;;;;3933988;30;20106;-64
2021/12/14 13:05:27;;;;;;;0.00;0.00;;;5.20;94.10;;;;;;3946795;30;20071;-64
2021/12/14 13:07:57;;;;;;;0.00;0.00;;;5.20;94.00;;;;;;3946174;30;20075;-64
2021/12/14 13:10:41;;;;;;;0.00;0.00;;;5.30;94.20;;;;;;3946831;30;20055;-64
2021/12/14 13:13:10;;;;;;;0.00;0.00;;;5.20;94.20;;;;;;3946940;30;20055;-64
2021/12/14 13:15:55;;;;;;;0.00;0.00;;;5.40;94.20;;;;;;3946931;30;20154;-64
2021/12/14 13:18:29;;;;;;;0.00;0.00;;;5.60;93.70;;;;;;3946281;30;20131;-64
2021/12/14 13:21:03;;;;;;;0.00;0.00;;;5.60;93.60;;;;;;3946421;30;20098;-64
2021/12/14 13:23:45;;;;;;;0.00;0.00;;;5.50;93.90;;;;;;3946595;30;20128;-64
2021/12/14 13:26:29;;;;;;;0.00;0.00;;;5.40;94.00;;;;;;3946020;30;20407;-65
2021/12/14 13:28:54;;;;;;;0.00;0.00;;;5.40;94.20;;;;;;3946463;30;20056;-64
2021/12/14 13:31:32;;;;;;;0.00;0.00;;;5.50;94.30;;;;;;3958676;29;20059;-63
2021/12/14 13:33:55;;;;;;;0.00;0.00;;;5.60;94.10;;;;;;3958516;30;20498;-64
2021/12/14 13:36:18;;;;;;;0.00;0.00;;;5.60;93.90;;;;;;3946282;30;20130;-64
2021/12/14 13:38:40;;;;;;;0.00;0.00;;;5.60;93.90;;;;;;3946409;30;20059;-64
2021/12/14 13:41:05;;;;;;;0.00;0.00;;;5.80;93.80;;;;;;3946400;30;20055;-64
2021/12/14 13:43:40;;;;;;;0.00;0.00;;;5.70;93.30;;;;;;3946547;30;20143;-64
2021/12/14 13:46:05;;;;;;;0.00;0.00;;;5.90;93.30;;;;;;3946385;30;20077;-65
2021/12/14 13:48:31;;;;;;;0.00;0.00;;;6.00;93.00;;;;;;3946104;30;20051;-64
2021/12/14 13:50:57;;;;;;;0.00;0.00;;;6.10;92.90;;;;;;3945969;30;20048;-65
2021/12/14 13:53:20;;;;;;;0.00;0.00;;;6.20;92.70;;;;;;3945897;30;20477;-65
2021/12/14 13:56:09;;;;;;;0.00;0.00;;;6.20;92.60;;;;;;3919036;30;20665;-65
2021/12/14 13:58:35;;;;;;;0.00;0.00;;;6.30;92.70;;;;;;3931587;30;20296;-65